sensor_id;sensor_type;location;lat;lon;timestamp;pressure;altitude;pressure_sealevel;temperature;humidity
80749;BME280;70145;53.746;9.970;2023-06-26T00:00:46;101132.03;;;20.38;45.72
80749;BME280;70145;53.746;9.970;2023-06-26T00:03:13;101137.06;;;20.35;45.52
80749;BME280;70145;53.746;9.970;2023-06-26T00:05:40;101136.56;;;20.31;45.81
80749;BME280;70145;53.746;9.970;2023-06-26T00:08:06;101124.28;;;20.27;45.91
80749;BME280;70145;53.746;9.970;2023-06-26T00:10:31;101127.38;;;20.24;46.05
80749;BME280;70145;53.746;9.970;2023-06-26T00:12:57;101127.75;;;20.21;46.07
80749;BME280;70145;53.746;9.970;2023-06-26T00:15:22;101114.44;;;20.18;46.01
80749;BME280;70145;53.746;9.970;2023-06-26T00:17:47;101119.44;;;20.15;46.18
80749;BME280;70145;53.746;9.970;2023-06-26T00:20:13;101124.22;;;20.13;46.58
80749;BME280;70145;53.746;9.970;2023-06-26T00:22:43;101116.38;;;20.10;46.13
80749;BME280;70145;53.746;9.970;2023-06-26T00:25:08;101117.63;;;20.07;46.52
80749;BME280;70145;53.746;9.970;2023-06-26T00:27:33;101116.28;;;20.03;46.45
80749;BME280;70145;53.746;9.970;2023-06-26T00:29:58;101108.44;;;20.00;46.45
80749;BME280;70145;53.746;9.970;2023-06-26T00:32:24;101109.63;;;19.98;46.49
80749;BME280;70145;53.746;9.970;2023-06-26T00:34:49;101100.94;;;19.94;46.73
80749;BME280;70145;53.746;9.970;2023-06-26T00:37:14;101109.69;;;19.90;46.73
80749;BME280;70145;53.746;9.970;2023-06-26T00:39:40;101102.69;;;19.87;46.70
80749;BME280;70145;53.746;9.970;2023-06-26T00:42:06;101099.63;;;19.82;46.68
80749;BME280;70145;53.746;9.970;2023-06-26T00:44:31;101100.88;;;19.80;46.96
80749;BME280;70145;53.746;9.970;2023-06-26T00:46:56;101098.66;;;19.75;47.01
80749;BME280;70145;53.746;9.970;2023-06-26T00:49:22;101099.88;;;19.73;47.06
80749;BME280;70145;53.746;9.970;2023-06-26T00:51:48;101089.31;;;19.70;47.39
80749;BME280;70145;53.746;9.970;2023-06-26T00:54:13;101092.41;;;19.67;47.53
80749;BME280;70145;53.746;9.970;2023-06-26T00:56:45;101097.38;;;19.63;47.49
80749;BME280;70145;53.746;9.970;2023-06-26T00:59:10;101083.25;;;19.60;47.68
80749;BME280;70145;53.746;9.970;2023-06-26T01:01:35;101087.16;;;19.57;47.56
80749;BME280;70145;53.746;9.970;2023-06-26T01:04:01;101087.34;;;19.56;47.73
80749;BME280;70145;53.746;9.970;2023-06-26T01:06:28;101080.53;;;19.52;47.77
80749;BME280;70145;53.746;9.970;2023-06-26T01:08:58;101076.28;;;19.49;48.11
80749;BME280;70145;53.746;9.970;2023-06-26T01:11:23;101082.09;;;19.46;47.95
80749;BME280;70145;53.746;9.970;2023-06-26T01:13:49;101077.00;;;19.43;47.88
80749;BME280;70145;53.746;9.970;2023-06-26T01:16:16;101079.91;;;19.42;48.13
80749;BME280;70145;53.746;9.970;2023-06-26T01:18:45;101075.84;;;19.38;48.40
80749;BME280;70145;53.746;9.970;2023-06-26T01:21:11;101073.28;;;19.36;48.14
80749;BME280;70145;53.746;9.970;2023-06-26T01:24:02;101074.84;;;19.31;48.54
80749;BME280;70145;53.746;9.970;2023-06-26T01:26:32;101069.53;;;19.29;48.04
80749;BME280;70145;53.746;9.970;2023-06-26T01:29:01;101064.44;;;19.26;48.27
80749;BME280;70145;53.746;9.970;2023-06-26T01:31:28;101066.47;;;19.24;48.38
80749;BME280;70145;53.746;9.970;2023-06-26T01:33:57;101056.78;;;19.22;48.60
80749;BME280;70145;53.746;9.970;2023-06-26T01:36:24;101059.50;;;19.22;48.43
80749;BME280;70145;53.746;9.970;2023-06-26T01:38:49;101053.53;;;19.18;48.86
80749;BME280;70145;53.746;9.970;2023-06-26T01:41:16;101046.56;;;19.16;48.71
80749;BME280;70145;53.746;9.970;2023-06-26T01:44:12;101043.53;;;19.11;48.81
80749;BME280;70145;53.746;9.970;2023-06-26T01:51:58;101032.47;;;19.04;49.14
80749;BME280;70145;53.746;9.970;2023-06-26T01:54:30;101022.75;;;19.02;48.89
80749;BME280;70145;53.746;9.970;2023-06-26T01:56:59;101028.38;;;19.00;49.19
80749;BME280;70145;53.746;9.970;2023-06-26T01:59:25;101028.75;;;18.97;49.22
80749;BME280;70145;53.746;9.970;2023-06-26T02:01:53;101022.59;;;18.95;49.23
80749;BME280;70145;53.746;9.970;2023-06-26T02:04:19;101021.94;;;18.93;49.38
80749;BME280;70145;53.746;9.970;2023-06-26T02:06:44;101021.25;;;18.91;49.43
80749;BME280;70145;53.746;9.970;2023-06-26T02:09:09;101018.88;;;18.88;49.66
80749;BME280;70145;53.746;9.970;2023-06-26T02:11:35;101011.91;;;18.86;49.53
80749;BME280;70145;53.746;9.970;2023-06-26T02:14:00;101019.41;;;18.84;49.60
80749;BME280;70145;53.746;9.970;2023-06-26T02:16:25;101010.75;;;18.80;49.90
80749;BME280;70145;53.746;9.970;2023-06-26T02:18:50;101007.31;;;18.78;49.83
80749;BME280;70145;53.746;9.970;2023-06-26T02:21:16;101004.94;;;18.75;49.97
80749;BME280;70145;53.746;9.970;2023-06-26T02:23:41;101008.03;;;18.72;50.06
80749;BME280;70145;53.746;9.970;2023-06-26T02:26:06;101009.22;;;18.70;49.96
80749;BME280;70145;53.746;9.970;2023-06-26T02:28:32;101002.25;;;18.67;49.88
80749;BME280;70145;53.746;9.970;2023-06-26T02:30:59;101008.06;;;18.64;49.98
80749;BME280;70145;53.746;9.970;2023-06-26T02:33:24;101005.66;;;18.61;50.08
80749;BME280;70145;53.746;9.970;2023-06-26T02:35:49;101000.53;;;18.58;50.49
80749;BME280;70145;53.746;9.970;2023-06-26T02:38:15;100996.47;;;18.54;50.39
80749;BME280;70145;53.746;9.970;2023-06-26T02:40:41;100990.34;;;18.52;50.21
80749;BME280;70145;53.746;9.970;2023-06-26T02:43:06;100988.81;;;18.50;50.41
80749;BME280;70145;53.746;9.970;2023-06-26T02:45:31;100990.00;;;18.47;50.63
80749;BME280;70145;53.746;9.970;2023-06-26T02:47:57;100984.06;;;18.43;50.59
80749;BME280;70145;53.746;9.970;2023-06-26T02:50:22;100991.53;;;18.41;50.68
80749;BME280;70145;53.746;9.970;2023-06-26T02:52:47;100986.44;;;18.38;50.80
80749;BME280;70145;53.746;9.970;2023-06-26T02:55:15;100982.19;;;18.36;50.65
80749;BME280;70145;53.746;9.970;2023-06-26T02:57:41;100984.22;;;18.34;50.66
80749;BME280;70145;53.746;9.970;2023-06-26T03:00:06;100980.84;;;18.32;51.02
80749;BME280;70145;53.746;9.970;2023-06-26T03:02:33;100973.00;;;18.29;51.05
80749;BME280;70145;53.746;9.970;2023-06-26T03:04:58;100970.63;;;18.26;50.94
80749;BME280;70145;53.746;9.970;2023-06-26T03:07:24;100972.50;;;18.25;51.22
80749;BME280;70145;53.746;9.970;2023-06-26T03:09:49;100970.97;;;18.23;51.25
80749;BME280;70145;53.746;9.970;2023-06-26T03:12:14;100968.41;;;18.21;51.31
80749;BME280;70145;53.746;9.970;2023-06-26T03:14:40;100967.72;;;18.19;51.58
80749;BME280;70145;53.746;9.970;2023-06-26T03:17:05;100960.75;;;18.17;51.66
80749;BME280;70145;53.746;9.970;2023-06-26T03:19:32;100962.66;;;18.16;51.29
80749;BME280;70145;53.746;9.970;2023-06-26T03:21:57;100962.84;;;18.15;51.59
80749;BME280;70145;53.746;9.970;2023-06-26T03:24:23;100960.28;;;18.13;51.62
80749;BME280;70145;53.746;9.970;2023-06-26T03:26:48;100955.00;;;18.12;51.63
80749;BME280;70145;53.746;9.970;2023-06-26T03:29:13;100961.44;;;18.11;51.76
80749;BME280;70145;53.746;9.970;2023-06-26T03:31:39;100954.31;;;18.10;52.05
80749;BME280;70145;53.746;9.970;2023-06-26T03:34:04;100965.38;;;18.08;52.04
80749;BME280;70145;53.746;9.970;2023-06-26T03:36:30;100964.53;;;18.08;51.88
80749;BME280;70145;53.746;9.970;2023-06-26T03:38:55;100959.25;;;18.06;52.09
80749;BME280;70145;53.746;9.970;2023-06-26T03:41:22;100952.97;;;18.06;52.09
80749;BME280;70145;53.746;9.970;2023-06-26T03:43:48;100952.97;;;18.06;52.03
80749;BME280;70145;53.746;9.970;2023-06-26T03:46:14;100962.13;;;18.05;52.07
80749;BME280;70145;53.746;9.970;2023-06-26T03:48:39;100951.22;;;18.05;51.98
80749;BME280;70145;53.746;9.970;2023-06-26T03:51:05;100941.38;;;18.04;51.82
80749;BME280;70145;53.746;9.970;2023-06-26T03:53:31;100941.38;;;18.04;52.06
80749;BME280;70145;53.746;9.970;2023-06-26T03:55:57;100936.78;;;18.04;51.78
80749;BME280;70145;53.746;9.970;2023-06-26T03:58:22;100937.59;;;18.05;52.13
80749;BME280;70145;53.746;9.970;2023-06-26T04:00:47;100931.97;;;18.06;52.07
80749;BME280;70145;53.746;9.970;2023-06-26T04:03:13;100935.41;;;18.08;52.29
80749;BME280;70145;53.746;9.970;2023-06-26T04:05:38;100932.50;;;18.10;52.23
80749;BME280;70145;53.746;9.970;2023-06-26T04:08:04;100931.28;;;18.12;52.41
80749;BME280;70145;53.746;9.970;2023-06-26T04:10:29;100931.13;;;18.14;52.19
80749;BME280;70145;53.746;9.970;2023-06-26T04:12:54;100927.22;;;18.16;52.45
80749;BME280;70145;53.746;9.970;2023-06-26T04:15:19;100931.47;;;18.19;52.33
80749;BME280;70145;53.746;9.970;2023-06-26T04:17:45;100930.44;;;18.20;52.26
80749;BME280;70145;53.746;9.970;2023-06-26T04:20:10;100916.44;;;18.23;52.53
80749;BME280;70145;53.746;9.970;2023-06-26T04:22:36;100919.88;;;18.25;52.67
80749;BME280;70145;53.746;9.970;2023-06-26T04:25:02;100907.75;;;18.27;52.53
80749;BME280;70145;53.746;9.970;2023-06-26T04:27:28;100909.25;;;18.30;52.76
80749;BME280;70145;53.746;9.970;2023-06-26T04:29:53;100912.50;;;18.33;52.62
80749;BME280;70145;53.746;9.970;2023-06-26T04:32:19;100907.53;;;18.37;52.61
80749;BME280;70145;53.746;9.970;2023-06-26T04:34:44;100907.19;;;18.40;52.72
80749;BME280;70145;53.746;9.970;2023-06-26T04:37:09;100906.81;;;18.43;52.44
80749;BME280;70145;53.746;9.970;2023-06-26T04:39:36;100902.72;;;18.47;52.13
80749;BME280;70145;53.746;9.970;2023-06-26T04:42:02;100896.72;;;18.52;52.42
80749;BME280;70145;53.746;9.970;2023-06-26T04:44:28;100895.56;;;18.54;52.59
80749;BME280;70145;53.746;9.970;2023-06-26T04:46:53;100896.03;;;18.58;52.44
80749;BME280;70145;53.746;9.970;2023-06-26T04:49:18;100891.09;;;18.61;52.17
80749;BME280;70145;53.746;9.970;2023-06-26T04:51:45;100896.88;;;18.66;52.41
80749;BME280;70145;53.746;9.970;2023-06-26T04:54:10;100888.50;;;18.68;52.36
80749;BME280;70145;53.746;9.970;2023-06-26T04:56:36;100894.28;;;18.73;52.29
80749;BME280;70145;53.746;9.970;2023-06-26T04:59:01;100884.88;;;18.75;52.44
80749;BME280;70145;53.746;9.970;2023-06-26T05:01:27;100887.09;;;18.80;52.45
80749;BME280;70145;53.746;9.970;2023-06-26T05:03:57;100888.41;;;18.84;52.16
80749;BME280;70145;53.746;9.970;2023-06-26T05:06:23;100888.06;;;18.87;52.38
80749;BME280;70145;53.746;9.970;2023-06-26T05:08:48;100882.25;;;18.90;52.50
80749;BME280;70145;53.746;9.970;2023-06-26T05:11:13;100876.25;;;18.94;52.23
80749;BME280;70145;53.746;9.970;2023-06-26T05:13:39;100880.50;;;18.97;52.26
80749;BME280;70145;53.746;9.970;2023-06-26T05:16:05;100877.91;;;19.03;52.24
80749;BME280;70145;53.746;9.970;2023-06-26T05:18:30;100879.22;;;19.07;52.05
80749;BME280;70145;53.746;9.970;2023-06-26T05:20:56;100870.69;;;19.10;52.27
80749;BME280;70145;53.746;9.970;2023-06-26T05:23:23;100867.22;;;19.16;52.22
80749;BME280;70145;53.746;9.970;2023-06-26T05:25:50;100853.84;;;19.21;52.27
80749;BME280;70145;53.746;9.970;2023-06-26T05:28:16;100850.56;;;19.26;52.11
80749;BME280;70145;53.746;9.970;2023-06-26T05:30:41;100854.47;;;19.31;51.63
80749;BME280;70145;53.746;9.970;2023-06-26T05:33:10;100848.28;;;19.37;51.95
80749;BME280;70145;53.746;9.970;2023-06-26T05:35:36;100837.50;;;19.44;51.64
80749;BME280;70145;53.746;9.970;2023-06-26T05:38:01;100843.22;;;19.49;51.65
80749;BME280;70145;53.746;9.970;2023-06-26T05:40:27;100847.09;;;19.54;51.54
80749;BME280;70145;53.746;9.970;2023-06-26T05:42:53;100836.47;;;19.59;51.55
80749;BME280;70145;53.746;9.970;2023-06-26T05:45:18;100834.69;;;19.66;51.52
80749;BME280;70145;53.746;9.970;2023-06-26T05:47:43;100837.91;;;19.70;51.40
80749;BME280;70145;53.746;9.970;2023-06-26T05:50:09;100832.72;;;19.75;51.13
80749;BME280;70145;53.746;9.970;2023-06-26T05:52:35;100824.81;;;19.80;51.06
80749;BME280;70145;53.746;9.970;2023-06-26T05:55:02;100830.38;;;19.86;51.29
80749;BME280;70145;53.746;9.970;2023-06-26T05:57:28;100824.84;;;19.94;51.13
80749;BME280;70145;53.746;9.970;2023-06-26T05:59:54;100824.13;;;20.00;51.09
80749;BME280;70145;53.746;9.970;2023-06-26T06:02:20;100821.66;;;20.05;50.98
80749;BME280;70145;53.746;9.970;2023-06-26T06:04:45;100821.75;;;20.12;50.74
80749;BME280;70145;53.746;9.970;2023-06-26T06:07:11;100829.00;;;20.19;50.45
80749;BME280;70145;53.746;9.970;2023-06-26T06:09:36;100817.47;;;20.24;50.93
80749;BME280;70145;53.746;9.970;2023-06-26T06:12:04;100818.44;;;20.31;50.56
80749;BME280;70145;53.746;9.970;2023-06-26T06:14:29;100812.84;;;20.39;50.42
80749;BME280;70145;53.746;9.970;2023-06-26T06:16:55;100811.03;;;20.46;50.18
80749;BME280;70145;53.746;9.970;2023-06-26T06:19:20;100813.84;;;20.52;49.90
80749;BME280;70145;53.746;9.970;2023-06-26T06:21:45;100803.84;;;20.60;49.66
80749;BME280;70145;53.746;9.970;2023-06-26T06:24:11;100809.19;;;20.68;49.76
80749;BME280;70145;53.746;9.970;2023-06-26T06:26:36;100810.13;;;20.75;49.58
80749;BME280;70145;53.746;9.970;2023-06-26T06:29:01;100800.13;;;20.82;49.41
80749;BME280;70145;53.746;9.970;2023-06-26T06:31:26;100801.66;;;20.91;49.46
80749;BME280;70145;53.746;9.970;2023-06-26T06:33:55;100791.66;;;20.98;49.37
80749;BME280;70145;53.746;9.970;2023-06-26T06:36:20;100784.53;;;21.03;49.05
80749;BME280;70145;53.746;9.970;2023-06-26T06:38:45;100793.44;;;21.12;48.75
80749;BME280;70145;53.746;9.970;2023-06-26T06:41:11;100783.41;;;21.19;49.03
80749;BME280;70145;53.746;9.970;2023-06-26T06:43:37;100780.56;;;21.27;48.94
80749;BME280;70145;53.746;9.970;2023-06-26T06:46:03;100781.47;;;21.34;48.18
80749;BME280;70145;53.746;9.970;2023-06-26T06:48:28;100775.38;;;21.38;48.48
80749;BME280;70145;53.746;9.970;2023-06-26T06:50:53;100771.00;;;21.44;48.46
80749;BME280;70145;53.746;9.970;2023-06-26T06:53:19;100763.47;;;21.52;47.72
80749;BME280;70145;53.746;9.970;2023-06-26T06:55:48;100767.28;;;21.58;47.52
80749;BME280;70145;53.746;9.970;2023-06-26T06:58:13;100761.47;;;21.67;47.58
80749;BME280;70145;53.746;9.970;2023-06-26T07:00:38;100758.09;;;21.72;47.44
80749;BME280;70145;53.746;9.970;2023-06-26T07:03:04;100758.34;;;21.77;47.06
80749;BME280;70145;53.746;9.970;2023-06-26T07:05:29;100755.25;;;21.86;47.07
80749;BME280;70145;53.746;9.970;2023-06-26T07:07:55;100753.44;;;21.93;46.80
80749;BME280;70145;53.746;9.970;2023-06-26T07:10:20;100749.41;;;21.96;46.46
80749;BME280;70145;53.746;9.970;2023-06-26T07:12:46;100739.97;;;22.05;46.44
80749;BME280;70145;53.746;9.970;2023-06-26T07:15:11;100743.78;;;22.10;46.16
80749;BME280;70145;53.746;9.970;2023-06-26T07:17:37;100746.53;;;22.17;46.62
80749;BME280;70145;53.746;9.970;2023-06-26T07:20:04;100749.94;;;22.25;46.00
80749;BME280;70145;53.746;9.970;2023-06-26T07:22:31;100742.41;;;22.34;46.22
80749;BME280;70145;53.746;9.970;2023-06-26T07:24:56;100745.81;;;22.42;46.29
80749;BME280;70145;53.746;9.970;2023-06-26T07:27:22;100741.41;;;22.48;46.17
80749;BME280;70145;53.746;9.970;2023-06-26T07:29:47;100738.69;;;22.54;45.97
80749;BME280;70145;53.746;9.970;2023-06-26T07:32:12;100753.06;;;22.63;45.78
80749;BME280;70145;53.746;9.970;2023-06-26T07:34:38;100733.25;;;22.74;45.76
80749;BME280;70145;53.746;9.970;2023-06-26T07:37:03;100736.63;;;22.83;45.70
80749;BME280;70145;53.746;9.970;2023-06-26T07:39:29;100744.03;;;22.89;45.61
80749;BME280;70145;53.746;9.970;2023-06-26T07:41:55;100734.53;;;22.98;45.35
80749;BME280;70145;53.746;9.970;2023-06-26T07:44:21;100739.63;;;23.07;45.20
80749;BME280;70145;53.746;9.970;2023-06-26T07:46:46;100738.56;;;23.15;44.64
80749;BME280;70145;53.746;9.970;2023-06-26T07:49:11;100737.53;;;23.22;44.64
80749;BME280;70145;53.746;9.970;2023-06-26T07:51:37;100738.16;;;23.31;44.69
80749;BME280;70145;53.746;9.970;2023-06-26T07:54:03;100745.34;;;23.38;44.03
80749;BME280;70145;53.746;9.970;2023-06-26T07:56:28;100741.28;;;23.47;43.82
80749;BME280;70145;53.746;9.970;2023-06-26T07:58:54;100737.69;;;23.53;44.08
80749;BME280;70145;53.746;9.970;2023-06-26T08:01:19;100741.25;;;23.60;43.70
80749;BME280;70145;53.746;9.970;2023-06-26T08:03:44;100744.25;;;23.65;43.68
80749;BME280;70145;53.746;9.970;2023-06-26T08:06:09;100733.22;;;23.72;43.47
80749;BME280;70145;53.746;9.970;2023-06-26T08:08:35;100735.53;;;23.81;43.17
80749;BME280;70145;53.746;9.970;2023-06-26T08:11:00;100726.44;;;23.87;43.35
80749;BME280;70145;53.746;9.970;2023-06-26T08:13:25;100718.13;;;23.94;43.28
80749;BME280;70145;53.746;9.970;2023-06-26T08:15:51;100709.66;;;24.02;43.17
80749;BME280;70145;53.746;9.970;2023-06-26T08:18:17;100698.81;;;24.07;43.42
80749;BME280;70145;53.746;9.970;2023-06-26T08:20:43;100704.91;;;24.15;43.10
80749;BME280;70145;53.746;9.970;2023-06-26T08:23:08;100699.22;;;24.23;43.28
80749;BME280;70145;53.746;9.970;2023-06-26T08:25:33;100694.50;;;24.30;43.14
80749;BME280;70145;53.746;9.970;2023-06-26T08:27:59;100698.06;;;24.37;42.84
80749;BME280;70145;53.746;9.970;2023-06-26T08:30:24;100696.97;;;24.45;42.32
80749;BME280;70145;53.746;9.970;2023-06-26T08:32:53;100695.00;;;24.52;42.49
80749;BME280;70145;53.746;9.970;2023-06-26T08:35:18;100692.22;;;24.58;42.56
80749;BME280;70145;53.746;9.970;2023-06-26T08:37:43;100699.59;;;24.65;42.67
80749;BME280;70145;53.746;9.970;2023-06-26T08:40:10;100685.75;;;24.71;42.95
80749;BME280;70145;53.746;9.970;2023-06-26T08:42:35;100693.16;;;24.77;42.67
80749;BME280;70145;53.746;9.970;2023-06-26T08:45:00;100696.09;;;24.82;41.27
80749;BME280;70145;53.746;9.970;2023-06-26T08:47:26;100707.06;;;24.89;41.43
80749;BME280;70145;53.746;9.970;2023-06-26T08:49:58;100715.25;;;24.95;41.11
80749;BME280;70145;53.746;9.970;2023-06-26T08:52:31;100734.31;;;24.97;41.25
80749;BME280;70145;53.746;9.970;2023-06-26T08:54:59;100741.09;;;25.01;40.70
80749;BME280;70145;53.746;9.970;2023-06-26T08:57:27;100744.44;;;25.03;40.31
80749;BME280;70145;53.746;9.970;2023-06-26T08:59:55;100752.13;;;25.01;40.16
80749;BME280;70145;53.746;9.970;2023-06-26T09:02:21;100759.75;;;24.99;39.94
80749;BME280;70145;53.746;9.970;2023-06-26T09:04:48;100758.91;;;24.98;40.48
80749;BME280;70145;53.746;9.970;2023-06-26T09:07:14;100768.22;;;25.04;40.74
80749;BME280;70145;53.746;9.970;2023-06-26T09:09:39;100766.47;;;25.09;40.75
80749;BME280;70145;53.746;9.970;2023-06-26T09:12:05;100765.78;;;25.14;40.66
80749;BME280;70145;53.746;9.970;2023-06-26T09:14:31;100780.81;;;25.18;40.76
80749;BME280;70145;53.746;9.970;2023-06-26T09:16:56;100771.31;;;25.14;40.78
80749;BME280;70145;53.746;9.970;2023-06-26T09:19:22;100775.75;;;25.15;41.45
80749;BME280;70145;53.746;9.970;2023-06-26T09:21:49;100783.16;;;25.14;41.06
80749;BME280;70145;53.746;9.970;2023-06-26T09:24:16;100789.22;;;25.23;41.07
80749;BME280;70145;53.746;9.970;2023-06-26T09:26:42;100793.28;;;25.27;41.29
80749;BME280;70145;53.746;9.970;2023-06-26T09:29:08;100815.13;;;25.22;41.21
80749;BME280;70145;53.746;9.970;2023-06-26T09:31:37;100841.53;;;25.05;41.46
80749;BME280;70145;53.746;9.970;2023-06-26T09:34:03;100845.44;;;24.91;41.47
80749;BME280;70145;53.746;9.970;2023-06-26T09:36:29;100840.38;;;24.88;41.72
80749;BME280;70145;53.746;9.970;2023-06-26T09:39:04;100850.63;;;24.61;41.67
80749;BME280;70145;53.746;9.970;2023-06-26T09:41:33;100865.13;;;24.43;41.78
80749;BME280;70145;53.746;9.970;2023-06-26T09:44:01;100862.63;;;24.35;41.67
80749;BME280;70145;53.746;9.970;2023-06-26T09:46:28;100873.84;;;24.27;41.54
80749;BME280;70145;53.746;9.970;2023-06-26T09:49:05;100852.91;;;24.13;41.75
80749;BME280;70145;53.746;9.970;2023-06-26T09:51:32;100860.13;;;24.01;41.64
80749;BME280;70145;53.746;9.970;2023-06-26T09:53:58;100857.19;;;23.96;41.61
80749;BME280;70145;53.746;9.970;2023-06-26T09:56:24;100863.09;;;23.87;42.04
80749;BME280;70145;53.746;9.970;2023-06-26T09:58:49;100877.72;;;23.74;41.99
80749;BME280;70145;53.746;9.970;2023-06-26T10:01:15;100876.47;;;23.70;42.20
80749;BME280;70145;53.746;9.970;2023-06-26T10:03:40;100886.78;;;23.75;42.26
80749;BME280;70145;53.746;9.970;2023-06-26T10:06:07;100887.88;;;23.67;42.56
80749;BME280;70145;53.746;9.970;2023-06-26T10:08:34;100903.28;;;23.55;43.10
80749;BME280;70145;53.746;9.970;2023-06-26T10:11:02;100908.97;;;23.54;43.09
80749;BME280;70145;53.746;9.970;2023-06-26T10:13:38;100911.69;;;23.34;45.08
80749;BME280;70145;53.746;9.970;2023-06-26T10:16:07;100891.22;;;23.37;45.24
80749;BME280;70145;53.746;9.970;2023-06-26T10:18:35;100892.44;;;23.34;46.16
80749;BME280;70145;53.746;9.970;2023-06-26T10:21:05;100900.50;;;23.36;46.46
80749;BME280;70145;53.746;9.970;2023-06-26T10:23:31;100907.91;;;23.35;46.72
80749;BME280;70145;53.746;9.970;2023-06-26T10:25:58;100920.78;;;23.28;47.14
80749;BME280;70145;53.746;9.970;2023-06-26T10:28:26;100919.94;;;23.28;47.08
80749;BME280;70145;53.746;9.970;2023-06-26T10:30:54;100944.88;;;23.26;47.51
80749;BME280;70145;53.746;9.970;2023-06-26T10:33:20;100949.25;;;23.08;49.01
80749;BME280;70145;53.746;9.970;2023-06-26T10:35:46;100943.97;;;23.06;48.36
80749;BME280;70145;53.746;9.970;2023-06-26T10:38:12;100941.22;;;23.06;48.41
80749;BME280;70145;53.746;9.970;2023-06-26T10:40:45;100929.56;;;22.98;48.35
80749;BME280;70145;53.746;9.970;2023-06-26T10:43:12;100936.28;;;22.95;48.33
80749;BME280;70145;53.746;9.970;2023-06-26T10:45:48;100936.91;;;22.91;48.43
80749;BME280;70145;53.746;9.970;2023-06-26T10:48:18;100944.47;;;22.82;48.59
80749;BME280;70145;53.746;9.970;2023-06-26T10:50:43;100944.88;;;22.79;48.56
80749;BME280;70145;53.746;9.970;2023-06-26T10:56:03;100942.25;;;22.65;49.00
80749;BME280;70145;53.746;9.970;2023-06-26T11:01:20;100945.88;;;22.37;50.11
80749;BME280;70145;53.746;9.970;2023-06-26T11:06:27;100953.44;;;22.29;51.23
80749;BME280;70145;53.746;9.970;2023-06-26T11:08:53;100951.75;;;22.28;52.01
80749;BME280;70145;53.746;9.970;2023-06-26T11:11:20;100966.69;;;22.25;51.88
80749;BME280;70145;53.746;9.970;2023-06-26T11:13:46;100977.47;;;22.27;51.68
80749;BME280;70145;53.746;9.970;2023-06-26T11:16:13;100969.88;;;22.22;52.34
80749;BME280;70145;53.746;9.970;2023-06-26T11:18:39;100967.94;;;22.23;52.28
80749;BME280;70145;53.746;9.970;2023-06-26T11:21:09;100971.88;;;22.14;52.66
80749;BME280;70145;53.746;9.970;2023-06-26T11:23:36;100978.22;;;22.14;52.32
80749;BME280;70145;53.746;9.970;2023-06-26T11:26:18;100978.44;;;22.13;52.78
80749;BME280;70145;53.746;9.970;2023-06-26T11:28:56;100978.53;;;21.98;52.90
80749;BME280;70145;53.746;9.970;2023-06-26T11:31:29;100982.72;;;21.94;52.48
80749;BME280;70145;53.746;9.970;2023-06-26T11:34:00;100989.44;;;21.92;52.75
80749;BME280;70145;53.746;9.970;2023-06-26T11:36:29;100990.97;;;22.01;52.08
80749;BME280;70145;53.746;9.970;2023-06-26T11:39:00;101000.41;;;21.92;52.96
80749;BME280;70145;53.746;9.970;2023-06-26T11:41:28;101008.31;;;21.80;52.34
80749;BME280;70145;53.746;9.970;2023-06-26T11:43:53;101005.94;;;21.77;52.88
80749;BME280;70145;53.746;9.970;2023-06-26T11:46:20;101017.16;;;21.82;52.65
80749;BME280;70145;53.746;9.970;2023-06-26T11:48:46;101016.72;;;21.79;51.44
80749;BME280;70145;53.746;9.970;2023-06-26T11:51:15;101027.22;;;21.75;51.02
80749;BME280;70145;53.746;9.970;2023-06-26T11:53:44;101039.28;;;21.81;50.63
80749;BME280;70145;53.746;9.970;2023-06-26T11:56:11;101028.31;;;21.81;49.98
80749;BME280;70145;53.746;9.970;2023-06-26T11:58:56;101037.91;;;21.70;49.40
80749;BME280;70145;53.746;9.970;2023-06-26T12:01:23;101037.59;;;21.80;49.23
80749;BME280;70145;53.746;9.970;2023-06-26T12:03:50;101047.31;;;21.82;49.12
80749;BME280;70145;53.746;9.970;2023-06-26T12:06:16;101053.00;;;21.81;47.96
80749;BME280;70145;53.746;9.970;2023-06-26T12:08:42;101054.44;;;21.77;47.63
80749;BME280;70145;53.746;9.970;2023-06-26T12:11:07;101049.63;;;21.79;47.58
80749;BME280;70145;53.746;9.970;2023-06-26T12:13:33;101053.38;;;21.78;47.32
80749;BME280;70145;53.746;9.970;2023-06-26T12:15:59;101050.72;;;21.84;46.96
80749;BME280;70145;53.746;9.970;2023-06-26T12:18:24;101038.66;;;21.79;46.45
80749;BME280;70145;53.746;9.970;2023-06-26T12:20:52;101047.81;;;21.86;46.25
80749;BME280;70145;53.746;9.970;2023-06-26T12:23:17;101059.31;;;21.96;46.58
80749;BME280;70145;53.746;9.970;2023-06-26T12:25:43;101053.25;;;22.00;46.38
80749;BME280;70145;53.746;9.970;2023-06-26T12:28:16;101071.56;;;21.79;46.08
80749;BME280;70145;53.746;9.970;2023-06-26T12:30:45;101072.31;;;21.87;45.53
80749;BME280;70145;53.746;9.970;2023-06-26T12:33:14;101060.59;;;22.00;46.17
80749;BME280;70145;53.746;9.970;2023-06-26T12:35:41;101069.59;;;21.94;45.09
80749;BME280;70145;53.746;9.970;2023-06-26T12:38:08;101071.72;;;21.92;45.45
80749;BME280;70145;53.746;9.970;2023-06-26T12:40:44;101062.28;;;22.01;45.05
80749;BME280;70145;53.746;9.970;2023-06-26T12:43:22;101069.34;;;22.10;45.99
80749;BME280;70145;53.746;9.970;2023-06-26T12:45:48;101071.38;;;22.22;45.77
80749;BME280;70145;53.746;9.970;2023-06-26T12:48:13;101082.66;;;22.34;45.75
80749;BME280;70145;53.746;9.970;2023-06-26T12:50:45;101080.50;;;22.29;44.79
80749;BME280;70145;53.746;9.970;2023-06-26T12:53:10;101077.19;;;22.34;44.14
80749;BME280;70145;53.746;9.970;2023-06-26T12:55:36;101104.75;;;22.47;44.50
80749;BME280;70145;53.746;9.970;2023-06-26T12:58:01;101103.53;;;22.56;44.07
80749;BME280;70145;53.746;9.970;2023-06-26T13:00:27;101104.81;;;22.53;43.53